Lobo

Go HERE for most recent data if this page is not up to date.

Jump to table bottom
Date/Time Temp deg F RH % 24 Hr Snow (in) Snow Depth (in) H2O (in)
08/14 07:00 53.5 58 "NAN" 1.5 0.00
08/14 06:00 53.3 59 "NAN" 1.6 0.00
08/14 05:00 53.5 59 "NAN" 1.6 0.00
08/14 04:00 54.0 58 "NAN" 1.6 0.00
08/14 03:00 53.9 59 "NAN" 1.3 0.00
08/14 02:00 52.8 62 "NAN" 1.6 0.00
08/14 01:00 52.5 61 "NAN" 1.5 0.00
08/14 00:00 51.0 71 "NAN" 1.2 0.00
08/13 23:00 50.2 80 "NAN" 1.1 0.00
08/13 22:00 51.7 82 "NAN" 0.9 0.00
08/13 21:00 52.7 80 "NAN" 1.0 0.00
08/13 20:00 54.9 80 "NAN" 1.0 0.00
08/13 19:00 57.1 59 "NAN" 0.9 0.00
08/13 18:00 56.7 48 "NAN" 0.8 0.02
08/13 17:00 58.1 51 "NAN" 1.1 0.00
08/13 16:00 57.4 69 "NAN" 2.0 0.00
08/13 15:00 58.0 73 "NAN" 0.5 0.00
08/13 14:00 57.8 80 "NAN" -129.5 0.12
08/13 13:00 67.1 45 "NAN" 1.4 0.00
08/13 12:00 68.3 43 "NAN" 127.5 0.00
08/13 11:00 65.3 47 "NAN" 2.3 0.00
08/13 10:00 62.5 51 "NAN" 0.7 0.00
08/13 09:00 59.7 58 "NAN" 1.2 0.00
08/13 08:00 57.0 60 "NAN" 1.1 0.00
08/13 07:00 58.6 47 "NAN" 1.3 0.00
08/13 06:00 58.3 50 "NAN" 0.8 0.00
08/13 05:00 57.0 49 "NAN" 1.3 0.00
08/13 04:00 55.1 60 "NAN" 1.1 0.00
08/13 03:00 54.4 61 "NAN" 1.2 0.00
08/13 02:00 54.9 64 "NAN" 1.3 0.00
08/13 01:00 53.7 60 "NAN" 1.4 0.00
08/13 00:00 52.7 65 "NAN" 1.2 0.00
.